Time;durP1;ratioP1;P1;durP2;ratioP2;P2;SDS_P1;SDS_P2;PMS_P1;PMS_P2;Temp;Humidity;BMP_temperature;BMP_pressure;BME280_temperature;BME280_humidity;BME280_pressure;Samples;Min_cycle;Max_cycle;Signal;HPM_P1;HPM_P2
2022/08/18 00:01:21;;;;;;;11.13;7.97;;;;;;;22.39;56.18;99851.56;5045667;28;20156;-53
2022/08/18 00:03:47;;;;;;;11.65;7.40;;;;;;;22.41;56.06;99855.75;5045965;28;20052;-54
2022/08/18 00:06:13;;;;;;;11.75;7.15;;;;;;;22.54;55.96;99847.84;5058175;28;20067;-54
2022/08/18 00:08:39;;;;;;;13.20;7.50;;;;;;;22.53;56.57;99858.50;5065906;28;20264;-53
2022/08/18 00:11:05;;;;;;;12.70;7.90;;;;;;;22.46;55.89;99863.38;5054838;28;20026;-53
2022/08/18 00:13:31;;;;;;;10.00;6.88;;;;;;;22.46;56.00;99858.09;5046733;28;20057;-54
2022/08/18 00:15:56;;;;;;;12.15;7.85;;;;;;;22.38;56.28;99865.69;5065257;28;20024;-53
2022/08/18 00:18:22;;;;;;;9.15;7.20;;;;;;;22.15;57.05;99870.69;5065729;28;20344;-54
2022/08/18 00:20:48;;;;;;;10.20;7.57;;;;;;;22.14;57.09;99862.88;5065693;28;20025;-53
2022/08/18 00:23:14;;;;;;;10.80;7.38;;;;;;;21.96;57.69;99872.84;5065388;28;20024;-54
2022/08/18 00:25:39;;;;;;;11.73;7.72;;;;;;;21.68;58.67;99872.03;5065593;28;20036;-54
2022/08/18 00:28:05;;;;;;;10.18;7.70;;;;;;;21.61;58.92;99876.00;5064922;28;21891;-54
2022/08/18 00:30:31;;;;;;;14.57;6.93;;;;;;;21.44;59.49;99884.97;5065379;28;20033;-54
2022/08/18 00:32:59;;;;;;;11.10;7.45;;;;;;;21.42;59.72;99882.41;5065242;28;20040;-52
2022/08/18 00:35:34;;;;;;;10.88;7.97;;;;;;;21.46;59.79;99902.38;5065322;28;20049;-53
2022/08/18 00:38:02;;;;;;;12.52;7.72;;;;;;;21.55;59.44;99896.53;5074439;28;20020;-54
2022/08/18 00:40:40;;;;;;;11.70;7.18;;;;;;;21.68;58.89;99893.94;5058898;28;20147;-53
2022/08/18 00:43:13;;;;;;;11.48;7.45;;;;;;;21.40;59.45;99854.47;5050685;28;20104;-53
2022/08/18 00:45:41;;;;;;;13.30;8.45;;;;;;;21.47;59.74;99872.41;5063767;28;20028;-53
2022/08/18 00:48:09;;;;;;;11.27;7.07;;;;;;;21.48;59.86;99876.75;5044953;28;20025;-55
2022/08/18 00:50:50;;;;;;;11.57;7.57;;;;;;;21.22;60.37;99854.72;5074752;28;20025;-53
2022/08/18 00:53:27;;;;;;;10.48;7.55;;;;;;;21.40;60.10;99876.38;5060751;28;20056;-54
2022/08/18 00:55:55;;;;;;;12.60;7.18;;;;;;;21.59;59.43;99870.84;5050766;28;20029;-54
2022/08/18 00:58:28;;;;;;;8.88;7.90;;;;;;;21.45;60.06;99876.94;5044874;28;20246;-54
2022/08/18 01:00:54;;;;;;;16.45;7.50;;;;;;;21.44;60.29;99882.31;5046390;28;20081;-54
2022/08/18 01:03:22;;;;;;;14.45;7.72;;;;;;;21.31;59.73;99848.00;5084950;28;20306;-54
2022/08/18 01:05:55;;;;;;;14.93;7.50;;;;;;;21.19;60.00;99850.47;5064655;28;20025;-54
2022/08/18 01:08:21;;;;;;;10.57;7.95;;;;;;;21.56;59.41;99884.19;5064631;28;20033;-54
2022/08/18 01:10:48;;;;;;;15.60;8.50;;;;;;;21.11;61.44;99892.25;5056532;28;20025;-55
2022/08/18 01:13:14;;;;;;;11.90;7.88;;;;;;;21.00;61.82;99898.16;5044747;28;20055;-54
2022/08/18 01:15:40;;;;;;;12.95;7.65;;;;;;;21.24;61.10;99900.22;5043602;28;20308;-54
2022/08/18 01:23:53;;;;;;;12.00;8.18;;;;;;;21.00;61.64;99871.81;5044425;28;20107;-54
2022/08/18 01:26:21;;;;;;;13.98;8.10;;;;;;;21.23;61.05;99884.53;5044402;28;20035;-54
2022/08/18 01:28:48;;;;;;;12.38;7.97;;;;;;;21.25;61.14;99878.22;5050046;28;20075;-55
2022/08/18 01:31:39;;;;;;;14.60;8.85;;;;;;;21.13;61.87;99879.81;5068033;28;20074;-54
2022/08/18 01:34:08;;;;;;;13.23;9.53;;;;;;;20.81;61.63;99840.53;5079881;28;20028;-53
2022/08/18 01:36:36;;;;;;;12.25;8.70;;;;;;;20.98;61.13;99833.38;5044448;28;20052;-53
2022/08/18 01:39:05;;;;;;;14.40;8.32;;;;;;;21.08;60.65;99839.75;5043971;28;20096;-53
2022/08/18 01:41:30;;;;;;;15.43;8.60;;;;;;;21.38;60.71;99883.56;5071224;28;20039;-53
2022/08/18 01:43:58;;;;;;;14.60;8.77;;;;;;;21.03;60.99;99840.06;5063998;28;20021;-53
2022/08/18 01:46:24;;;;;;;15.30;9.40;;;;;;;21.23;61.45;99881.88;5057183;28;20024;-53
2022/08/18 01:48:50;;;;;;;13.57;9.68;;;;;;;21.13;61.80;99897.41;5062767;28;20029;-53
2022/08/18 01:51:18;;;;;;;12.63;8.60;;;;;;;21.27;61.25;99889.50;5063948;28;20277;-54
2022/08/18 01:53:45;;;;;;;14.68;9.32;;;;;;;21.34;60.70;99884.69;5063840;28;20021;-54
2022/08/18 01:56:11;;;;;;;14.73;9.35;;;;;;;21.22;61.16;99888.94;5051410;28;20074;-54
2022/08/18 01:58:37;;;;;;;14.95;9.63;;;;;;;21.25;61.10;99895.78;5044134;28;20029;-53
2022/08/18 02:01:04;;;;;;;13.02;10.57;;;;;;;21.07;61.88;99877.56;5043869;28;20029;-53
2022/08/18 02:03:36;;;;;;;14.07;9.85;;;;;;;20.95;61.32;99847.59;5044146;28;20067;-53
2022/08/18 02:06:09;;;;;;;13.20;9.48;;;;;;;21.02;61.37;99858.56;5042893;28;20135;-53
2022/08/18 02:08:36;;;;;;;18.75;10.93;;;;;;;21.23;61.43;99905.59;5057669;28;20096;-53
2022/08/18 02:11:02;;;;;;;16.02;11.05;;;;;;;21.25;61.47;99901.06;5060717;28;20044;-55
2022/08/18 02:13:28;;;;;;;15.27;11.43;;;;;;;21.24;61.60;99902.03;5043831;28;20025;-54
2022/08/18 02:15:53;;;;;;;12.07;10.35;;;;;;;21.25;61.42;99898.44;5063326;28;20075;-54
2022/08/18 02:18:22;;;;;;;15.63;12.27;;;;;;;20.74;62.38;99854.19;5083457;28;20052;-53
2022/08/18 02:20:48;;;;;;;17.30;11.75;;;;;;;21.15;61.71;99911.31;5083530;28;20025;-54
2022/08/18 02:23:14;;;;;;;21.50;12.55;;;;;;;21.02;62.29;99913.88;5061090;28;20388;-53
2022/08/18 02:25:43;;;;;;;16.48;12.18;;;;;;;21.03;62.60;99913.81;5056686;28;20056;-53
2022/08/18 02:28:09;;;;;;;14.95;11.48;;;;;;;20.90;62.70;99894.41;5083151;28;20021;-53
2022/08/18 02:30:36;;;;;;;16.30;12.13;;;;;;;20.95;62.27;99909.91;5063279;28;20031;-53
2022/08/18 02:33:06;;;;;;;17.95;13.57;;;;;;;20.58;62.65;99867.38;5081215;28;20099;-54
2022/08/18 02:35:33;;;;;;;16.13;13.32;;;;;;;20.88;62.68;99916.50;5083557;28;20031;-54
2022/08/18 02:38:00;;;;;;;20.60;14.77;;;;;;;20.76;63.12;99924.19;5068156;28;20221;-53
2022/08/18 02:40:27;;;;;;;21.60;14.02;;;;;;;20.91;62.47;99927.69;5062955;28;20355;-53
2022/08/18 02:42:53;;;;;;;19.33;15.13;;;;;;;20.90;62.46;99927.78;5063319;28;20029;-53
2022/08/18 02:45:20;;;;;;;23.60;17.27;;;;;;;20.74;63.12;99923.44;5060481;28;20349;-54
2022/08/18 02:47:51;;;;;;;23.63;15.55;;;;;;;20.45;63.36;99883.03;5074120;28;20024;-54
2022/08/18 02:50:17;;;;;;;25.90;15.65;;;;;;;20.85;63.11;99931.56;5083357;28;20314;-53
2022/08/18 02:52:43;;;;;;;19.70;13.50;;;;;;;20.48;64.19;99933.72;5056958;28;20055;-53
2022/08/18 02:55:09;;;;;;;21.05;12.55;;;;;;;20.26;64.72;99925.38;5056891;28;20025;-54
2022/08/18 02:57:34;;;;;;;15.05;11.02;;;;;;;20.12;65.34;99940.19;5043026;28;20052;-53
2022/08/18 03:00:01;;;;;;;13.63;10.98;;;;;;;20.31;64.54;99936.50;5065934;28;20036;-53
2022/08/18 03:02:27;;;;;;;16.83;11.13;;;;;;;20.27;64.82;99929.72;5043282;28;20095;-53
2022/08/18 03:04:52;;;;;;;15.07;10.82;;;;;;;20.24;65.21;99933.34;5043114;28;20116;-52
2022/08/18 03:07:18;;;;;;;13.68;9.77;;;;;;;20.12;65.86;99921.78;5046177;28;20021;-53
2022/08/18 03:09:44;;;;;;;14.60;10.20;;;;;;;20.42;64.71;99931.44;5063048;28;20321;-53
2022/08/18 03:12:09;;;;;;;12.05;10.75;;;;;;;20.32;65.01;99922.38;5063117;28;20025;-53
2022/08/18 03:14:38;;;;;;;13.15;9.57;;;;;;;20.48;65.02;99930.25;5048645;28;20021;-52
2022/08/18 03:17:07;;;;;;;12.40;9.07;;;;;;;19.94;65.33;99875.50;5042877;28;20076;-52
2022/08/18 03:19:33;;;;;;;11.52;9.45;;;;;;;20.33;64.82;99918.81;5056926;28;20033;-53
2022/08/18 03:21:59;;;;;;;17.55;9.95;;;;;;;20.09;65.67;99919.28;5085647;28;20029;-53
2022/08/18 03:24:27;;;;;;;12.55;9.00;;;;;;;20.23;63.96;99888.75;5047120;28;20378;-53
2022/08/18 03:26:55;;;;;;;10.90;9.20;;;;;;;20.29;65.28;99933.09;5046497;28;20018;-52
2022/08/18 03:29:24;;;;;;;15.63;9.35;;;;;;;20.14;65.65;99919.06;5056734;28;20024;-52
2022/08/18 03:31:50;;;;;;;11.95;8.68;;;;;;;20.16;66.12;99932.94;5065431;28;20062;-53
2022/08/18 03:34:18;;;;;;;14.60;9.32;;;;;;;20.00;65.80;99888.28;5068996;28;20025;-52
2022/08/18 03:36:44;;;;;;;11.68;8.88;;;;;;;20.16;65.89;99925.88;5086663;28;20059;-52
2022/08/18 03:39:12;;;;;;;12.15;9.10;;;;;;;20.09;65.40;99908.78;5049299;28;20056;-54
2022/08/18 03:41:42;;;;;;;15.55;9.63;;;;;;;20.27;65.40;99908.66;5046299;28;20038;-53
2022/08/18 03:44:12;;;;;;;16.55;8.77;;;;;;;20.59;64.41;99922.53;5046326;28;20028;-53
2022/08/18 03:46:40;;;;;;;15.05;9.18;;;;;;;20.55;64.56;99931.56;5046197;28;20017;-53
2022/08/18 03:49:05;;;;;;;12.35;8.73;;;;;;;20.72;64.07;99920.06;5046308;28;20349;-53
2022/08/18 03:51:32;;;;;;;12.30;8.80;;;;;;;20.84;63.53;99921.94;5046438;28;20021;-53
2022/08/18 03:54:00;;;;;;;12.85;8.48;;;;;;;20.93;63.53;99938.13;5046339;28;20029;-54
2022/08/18 03:56:32;;;;;;;13.60;9.60;;;;;;;20.64;63.30;99873.13;5093431;28;20259;-54
2022/08/18 03:59:01;;;;;;;15.23;10.10;;;;;;;20.80;63.64;99930.97;5085610;28;20052;-54
2022/08/18 04:01:31;;;;;;;17.75;13.55;;;;;;;20.62;64.12;99932.03;5082208;28;20092;-54
2022/08/18 04:04:03;;;;;;;17.42;11.85;;;;;;;20.65;63.34;99882.72;5065903;28;20070;-53
2022/08/18 04:06:39;;;;;;;15.38;11.30;;;;;;;20.73;62.73;99877.00;5045979;28;20024;-53
2022/08/18 04:09:08;;;;;;;13.98;11.05;;;;;;;20.69;63.14;99879.00;5063427;28;20029;-53
2022/08/18 04:11:36;;;;;;;17.77;12.80;;;;;;;20.76;62.90;99879.44;5052556;28;20037;-54
2022/08/18 04:14:03;;;;;;;20.35;12.45;;;;;;;21.14;62.83;99933.34;5050478;28;20067;-52
2022/08/18 04:16:33;;;;;;;20.20;15.20;;;;;;;21.19;62.36;99933.91;5061575;28;20017;-53
2022/08/18 04:19:02;;;;;;;23.70;18.67;;;;;;;20.85;63.04;99938.63;5045883;28;20085;-53
2022/08/18 04:21:30;;;;;;;32.40;26.10;;;;;;;20.88;63.47;99938.44;5065664;28;20322;-54
2022/08/18 04:23:58;;;;;;;40.63;30.10;;;;;;;21.18;62.69;99938.34;5049424;28;20322;-54
2022/08/18 04:26:24;;;;;;;45.70;36.95;;;;;;;21.19;62.66;99940.03;5057291;28;20088;-54
2022/08/18 04:28:50;;;;;;;53.50;42.22;;;;;;;20.91;63.25;99932.09;5064073;28;20320;-55
2022/08/18 04:31:17;;;;;;;49.67;40.47;;;;;;;21.24;62.59;99928.38;5048395;28;20098;-54
2022/08/18 04:33:43;;;;;;;46.92;40.47;;;;;;;21.31;62.38;99935.78;5084395;28;20048;-54
2022/08/18 04:36:13;;;;;;;52.53;44.72;;;;;;;21.11;62.02;99891.41;5049628;28;20222;-53
2022/08/18 04:38:42;;;;;;;49.45;41.22;;;;;;;21.29;63.09;99934.19;5047886;28;20045;-54
2022/08/18 04:41:09;;;;;;;47.28;42.25;;;;;;;21.60;62.22;99941.03;5045272;28;20057;-54
2022/08/18 04:43:35;;;;;;;62.92;51.33;;;;;;;21.61;62.07;99944.53;5050014;28;20292;-55
2022/08/18 04:46:01;;;;;;;70.43;53.45;;;;;;;21.43;62.52;99939.44;5056990;28;20029;-55
2022/08/18 04:48:32;;;;;;;77.80;59.53;;;;;;;21.44;62.45;99937.66;5065055;28;20032;-54
2022/08/18 04:51:12;;;;;;;66.72;57.92;;;;;;;21.38;62.26;99896.72;5065187;28;20024;-54
2022/08/18 04:53:44;;;;;;;66.85;57.55;;;;;;;21.81;61.87;99944.09;5078490;28;20028;-54
2022/08/18 04:56:25;;;;;;;72.68;59.42;;;;;;;21.90;61.94;99942.66;5067663;28;20025;-55
2022/08/18 04:59:05;;;;;;;69.70;59.40;;;;;;;21.48;62.04;99903.09;5058269;28;20025;-54
2022/08/18 05:01:38;;;;;;;63.05;53.58;;;;;;;21.42;61.65;99903.50;5048973;28;20100;-53
2022/08/18 05:04:04;;;;;;;56.20;47.50;;;;;;;21.48;61.67;99955.81;5065001;28;20084;-54
2022/08/18 05:06:30;;;;;;;52.92;46.72;;;;;;;21.89;60.82;99941.81;5084807;28;20039;-54
2022/08/18 05:09:03;;;;;;;61.95;52.17;;;;;;;21.38;61.14;99902.00;5068963;28;20371;-53
2022/08/18 05:11:34;;;;;;;53.35;47.38;;;;;;;21.62;61.17;99954.13;5052665;28;20045;-53
2022/08/18 05:14:02;;;;;;;56.50;44.45;;;;;;;21.77;60.78;99957.59;5060661;28;20028;-53
2022/08/18 05:16:35;;;;;;;57.60;44.97;;;;;;;21.96;60.29;99947.56;5080880;28;20037;-54
2022/08/18 05:19:08;;;;;;;51.22;39.92;;;;;;;22.17;59.98;99947.91;5064541;28;20028;-54
2022/08/18 05:21:35;;;;;;;49.63;39.72;;;;;;;22.36;59.49;99949.38;5044933;28;20029;-54
2022/08/18 05:24:02;;;;;;;52.42;41.67;;;;;;;22.31;59.80;99954.94;5044343;28;20318;-54
2022/08/18 05:26:28;;;;;;;46.13;39.45;;;;;;;22.51;59.07;99945.72;5068205;28;20036;-54
2022/08/18 05:28:54;;;;;;;48.42;39.53;;;;;;;22.63;59.65;99948.47;5076463;28;20029;-54
2022/08/18 05:31:24;;;;;;;52.63;46.95;;;;;;;22.48;58.89;99956.50;5067005;28;20360;-54
2022/08/18 05:33:51;;;;;;;51.28;44.13;;;;;;;22.65;58.81;99951.88;5079102;28;20309;-54
2022/08/18 05:36:35;;;;;;;50.90;43.60;;;;;;;22.77;59.12;99960.75;5064223;28;20237;-54
2022/08/18 05:39:24;;;;;;;54.88;44.25;;;;;;;22.91;58.58;99958.84;5046064;28;20384;-53
2022/08/18 05:41:50;;;;;;;50.72;41.60;;;;;;;23.04;58.63;99958.00;5077801;28;20036;-54
2022/08/18 05:44:20;;;;;;;50.33;40.13;;;;;;;23.15;58.25;99957.31;5063891;28;20075;-54
2022/08/18 05:46:51;;;;;;;50.53;39.00;;;;;;;23.12;57.86;99961.00;5054851;28;20123;-54
2022/08/18 05:49:18;;;;;;;50.38;38.42;;;;;;;23.21;58.02;99960.34;5080223;28;20032;-54
2022/08/18 05:51:51;;;;;;;41.45;36.05;;;;;;;23.08;57.47;99909.28;5044622;28;20336;-53
2022/08/18 05:57:18;;;;;;;40.88;33.63;;;;;;;23.39;57.83;99928.31;5080513;28;20233;-54
2022/08/18 05:59:44;;;;;;;39.42;33.15;;;;;;;23.66;57.88;99964.28;5064092;28;20092;-55
2022/08/18 06:02:25;;;;;;;37.35;31.02;;;;;;;23.51;57.64;99961.78;5072899;28;20036;-54
2022/08/18 06:04:55;;;;;;;39.08;29.92;;;;;;;23.40;57.68;99951.13;5070860;28;20025;-54
2022/08/18 06:08:03;;;;;;;39.90;33.70;;;;;;;23.43;57.35;99961.50;5046002;28;20063;-54
2022/08/18 06:10:30;;;;;;;40.63;31.23;;;;;;;23.59;57.08;99970.03;5061975;28;20043;-54
2022/08/18 06:12:59;;;;;;;40.40;30.65;;;;;;;23.44;57.32;99920.88;5083730;28;20024;-56
2022/08/18 06:15:36;;;;;;;35.72;29.85;;;;;;;23.67;57.33;99973.91;5060748;28;20040;-55
2022/08/18 06:18:38;;;;;;;35.13;30.20;;;;;;;23.52;57.74;99970.59;5079500;28;20028;-53
2022/08/18 06:21:31;;;;;;;39.20;29.67;;;;;;;23.82;57.14;99975.47;5083714;28;20027;-54
2022/08/18 06:24:26;;;;;;;37.25;27.98;;;;;;;23.94;56.77;99971.97;5074213;28;20035;-54
2022/08/18 06:26:57;;;;;;;38.65;28.13;;;;;;;23.87;56.46;99970.72;5076135;28;20344;-54
2022/08/18 06:29:55;;;;;;;33.00;26.75;;;;;;;23.98;55.87;99974.38;5059929;28;20032;-54
2022/08/18 06:32:41;;;;;;;30.30;23.73;;;;;;;24.02;56.26;99984.63;5071468;28;20074;-54
2022/08/18 06:35:26;;;;;;;28.80;24.42;;;;;;;23.98;56.26;99979.69;5068892;28;20021;-54
2022/08/18 06:40:49;;;;;;;19.85;17.75;;;;;;;24.07;55.82;99977.22;5046707;28;20119;-55
2022/08/18 06:43:16;;;;;;;27.35;18.90;;;;;;;23.77;56.38;99929.97;5044022;28;20523;-54
2022/08/18 06:45:47;;;;;;;24.27;18.38;;;;;;;23.82;56.42;99938.44;5043457;28;20022;-55
2022/08/18 06:48:32;;;;;;;25.30;17.02;;;;;;;24.22;55.75;99983.16;5042967;28;20034;-55
2022/08/18 06:51:00;;;;;;;19.98;16.00;;;;;;;24.19;55.57;99934.91;5073505;28;20137;-55
2022/08/18 06:53:49;;;;;;;22.40;16.45;;;;;;;24.44;55.22;99979.78;5065331;28;20023;-56
2022/08/18 06:56:37;;;;;;;18.15;14.02;;;;;;;24.52;54.52;99983.66;5071203;28;20020;-55
2022/08/18 06:59:26;;;;;;;18.00;14.05;;;;;;;24.57;54.26;99977.03;5069802;28;20110;-55
2022/08/18 07:01:59;;;;;;;21.30;14.68;;;;;;;24.64;54.23;99986.25;5069394;28;20021;-56
2022/08/18 07:04:58;;;;;;;22.88;13.88;;;;;;;24.84;54.36;99968.00;5070084;28;20037;-55
2022/08/18 07:07:37;;;;;;;18.52;13.60;;;;;;;24.97;53.36;99971.38;5067348;28;20025;-54
2022/08/18 07:10:25;;;;;;;14.38;11.85;;;;;;;25.14;52.92;99991.28;5049416;28;20021;-54
2022/08/18 07:12:51;;;;;;;18.50;11.05;;;;;;;25.16;51.41;99983.19;5089055;28;20103;-53
2022/08/18 07:15:23;;;;;;;15.70;10.90;;;;;;;25.39;52.41;99980.59;5070825;28;20205;-54
2022/08/18 07:17:49;;;;;;;15.93;11.52;;;;;;;25.55;51.03;99980.22;5069278;28;20313;-53
2022/08/18 07:20:24;;;;;;;19.08;11.40;;;;;;;25.46;51.14;99973.84;5069462;28;20035;-53
2022/08/18 07:22:52;;;;;;;15.07;10.48;;;;;;;25.52;50.39;99972.50;5069421;28;20066;-53
2022/08/18 07:25:47;;;;;;;26.95;10.40;;;;;;;25.56;50.52;99932.34;5070739;28;20045;-53
2022/08/18 07:28:43;;;;;;;15.95;9.05;;;;;;;26.01;49.52;99973.91;5088291;28;20059;-54
2022/08/18 07:31:48;;;;;;;12.38;8.95;;;;;;;26.04;48.34;99972.78;5069599;28;20028;-54
2022/08/18 07:34:24;;;;;;;10.52;7.72;;;;;;;25.92;48.15;99927.66;5069638;28;20021;-54
2022/08/18 07:37:02;;;;;;;9.95;8.32;;;;;;;26.05;49.18;99926.69;5069480;28;20084;-54
2022/08/18 07:39:27;;;;;;;9.45;6.10;;;;;;;26.30;46.87;99968.00;5069028;28;20136;-54
2022/08/18 07:42:02;;;;;;;12.10;6.57;;;;;;;26.45;47.33;99968.50;5069484;28;20112;-54
2022/08/18 07:44:51;;;;;;;12.27;6.40;;;;;;;26.55;46.75;99966.78;5059203;28;20363;-53
2022/08/18 07:47:31;;;;;;;13.02;6.15;;;;;;;26.73;46.53;99983.00;5067454;28;20047;-54
2022/08/18 07:49:57;;;;;;;8.30;6.15;;;;;;;26.70;45.82;99968.16;5082763;28;20067;-55
2022/08/18 07:52:50;;;;;;;10.18;6.07;;;;;;;26.82;46.31;99962.78;5061706;28;20093;-55
2022/08/18 07:55:29;;;;;;;8.68;6.38;;;;;;;26.92;45.88;99970.81;5078343;28;20288;-54
2022/08/18 07:58:13;;;;;;;14.88;5.70;;;;;;;27.02;46.35;99961.91;5049501;28;20052;-54
2022/08/18 08:00:47;;;;;;;8.95;5.43;;;;;;;26.89;44.79;99933.84;5049228;28;20025;-55
2022/08/18 08:03:24;;;;;;;12.00;6.28;;;;;;;27.19;44.79;99967.56;5083120;28;20096;-55
2022/08/18 08:06:22;;;;;;;10.88;5.70;;;;;;;27.33;45.39;99963.72;5057951;28;20033;-55
2022/08/18 08:09:08;;;;;;;6.30;5.22;;;;;;;27.36;44.72;99971.47;5044599;28;20113;-55
2022/08/18 08:11:56;;;;;;;5.78;4.00;;;;;;;27.30;43.45;99972.81;5064560;28;20044;-55
2022/08/18 08:14:30;;;;;;;8.50;4.03;;;;;;;27.38;42.36;99969.53;5075706;28;20021;-55
2022/08/18 08:17:11;;;;;;;8.43;4.43;;;;;;;27.40;42.38;99977.38;5065641;28;20024;-55
2022/08/18 08:19:58;;;;;;;6.13;4.38;;;;;;;27.45;42.06;99964.47;5062151;28;20048;-55
2022/08/18 08:22:29;;;;;;;7.80;4.53;;;;;;;27.31;40.92;99939.91;5045625;28;20037;-55
2022/08/18 08:25:21;;;;;;;5.63;3.90;;;;;;;27.16;41.08;99938.59;5045681;28;20245;-55
2022/08/18 08:28:04;;;;;;;9.80;4.10;;;;;;;27.42;40.69;99975.41;5045632;28;20043;-56
2022/08/18 08:30:35;;;;;;;7.70;3.58;;;;;;;27.75;41.79;99982.25;5045468;28;20281;-55
2022/08/18 08:33:20;;;;;;;4.37;3.17;;;;;;;27.64;40.72;99982.34;5054696;28;20190;-56
2022/08/18 08:36:04;;;;;;;5.25;3.33;;;;;;;27.26;40.08;99935.97;5052549;28;20026;-56
2022/08/18 08:38:40;;;;;;;6.38;3.83;;;;;;;27.57;40.30;99975.88;5055908;28;20080;-56
2022/08/18 08:41:21;;;;;;;5.38;3.58;;;;;;;27.86;40.42;99975.94;5057978;28;20041;-56
2022/08/18 08:44:10;;;;;;;5.63;3.53;;;;;;;27.98;39.67;99966.88;5045311;28;20025;-56
2022/08/18 08:46:44;;;;;;;5.32;3.42;;;;;;;27.82;39.72;99930.13;5047076;28;20147;-58
2022/08/18 08:49:39;;;;;;;9.18;3.78;;;;;;;28.00;38.80;99972.06;5045065;28;20033;-56
2022/08/18 08:52:19;;;;;;;7.70;3.97;;;;;;;27.77;39.80;99934.19;5044717;28;20338;-58
2022/08/18 08:54:55;;;;;;;9.13;3.95;;;;;;;28.25;39.68;99973.34;5050840;28;20055;-55
2022/08/18 08:57:28;;;;;;;11.45;4.78;;;;;;;28.20;39.21;99927.63;5064813;28;20131;-56
2022/08/18 08:59:56;;;;;;;10.90;4.00;;;;;;;28.42;38.98;99955.81;5078782;28;20096;-57
2022/08/18 09:02:26;;;;;;;7.35;4.18;;;;;;;28.47;39.72;99921.56;5084835;28;20074;-56
2022/08/18 09:05:04;;;;;;;7.20;3.63;;;;;;;28.31;39.33;99919.50;5069639;28;20214;-57
2022/08/18 09:07:41;;;;;;;5.68;4.22;;;;;;;28.84;39.14;99957.31;5064624;28;20051;-55
2022/08/18 09:10:29;;;;;;;8.80;4.55;;;;;;;28.59;39.04;99956.91;5063339;28;20016;-56
2022/08/18 09:13:09;;;;;;;5.60;4.20;;;;;;;29.03;39.54;99959.06;5062930;28;20017;-57
2022/08/18 09:16:03;;;;;;;8.80;3.80;;;;;;;28.64;38.84;99920.03;5060030;28;20051;-56
2022/08/18 09:18:53;;;;;;;9.85;4.05;;;;;;;28.62;38.73;99958.47;5061046;28;20021;-57
2022/08/18 09:21:27;;;;;;;6.38;3.70;;;;;;;28.46;38.95;99962.56;5063928;28;20029;-55
2022/08/18 09:24:21;;;;;;;7.60;3.65;;;;;;;28.52;38.25;99963.81;5050706;28;20030;-55
2022/08/18 09:27:02;;;;;;;5.05;4.13;;;;;;;28.82;38.56;99956.59;5055112;28;20048;-55
2022/08/18 09:29:37;;;;;;;12.55;4.55;;;;;;;28.12;38.74;99967.44;5052483;28;20049;-57
2022/08/18 09:32:18;;;;;;;10.25;4.00;;;;;;;28.71;38.90;99971.78;5055732;28;20028;-56
2022/08/18 09:35:05;;;;;;;5.22;3.72;;;;;;;28.73;38.99;99967.16;5063830;28;20040;-56
2022/08/18 09:37:43;;;;;;;10.13;4.07;;;;;;;28.54;38.54;99956.50;5057889;28;20024;-56
2022/08/18 09:43:15;;;;;;;5.47;3.70;;;;;;;28.24;38.36;99919.22;5061438;28;20056;-55
2022/08/18 09:45:58;;;;;;;10.77;3.70;;;;;;;28.63;37.43;99962.81;5060036;28;20021;-56
2022/08/18 09:48:28;;;;;;;9.20;4.07;;;;;;;28.71;37.65;99974.44;5060248;28;20446;-55
2022/08/18 09:51:17;;;;;;;9.20;3.72;;;;;;;28.48;38.29;99957.06;5060988;28;20043;-57
2022/08/18 09:53:46;;;;;;;7.47;3.92;;;;;;;28.56;38.73;99962.50;5062423;28;20057;-55
2022/08/18 09:56:14;;;;;;;6.22;3.75;;;;;;;28.44;38.41;99961.84;5057599;28;20021;-57
2022/08/18 09:59:01;;;;;;;10.18;4.03;;;;;;;28.38;39.11;99930.44;5063686;28;20033;-54
2022/08/18 10:01:33;;;;;;;10.40;4.15;;;;;;;28.45;38.80;99976.00;5052810;28;20033;-58
2022/08/18 10:04:13;;;;;;;;;;;;;;;28.23;38.65;99965.50;5054736;28;20028;-55
2022/08/18 10:06:44;;;;;;;7.18;3.90;;;;;;;28.11;38.76;99934.66;5057710;28;19908;-56
2022/08/18 10:09:36;;;;;;;7.40;3.90;;;;;;;28.20;38.98;99949.78;5062828;28;20033;-56
2022/08/18 10:12:04;;;;;;;6.78;3.70;;;;;;;28.62;38.74;99954.00;5043384;28;20037;-56
2022/08/18 10:14:59;;;;;;;5.40;3.78;;;;;;;28.62;38.17;99940.66;5042979;28;20025;-54
2022/08/18 10:17:56;;;;;;;5.03;3.35;;;;;;;28.35;36.81;99930.72;5043335;28;20021;-57
2022/08/18 10:20:27;;;;;;;8.30;3.53;;;;;;;28.19;36.87;99912.63;5048078;28;20029;-55
2022/08/18 10:22:55;;;;;;;5.82;4.00;;;;;;;28.48;36.61;99957.06;5062545;28;20028;-54
2022/08/18 10:25:40;;;;;;;6.88;3.72;;;;;;;28.47;36.11;99923.41;5047092;28;20367;-55
2022/08/18 10:28:09;;;;;;;4.82;3.78;;;;;;;28.67;36.08;99966.88;5060888;28;20328;-55
2022/08/18 10:30:35;;;;;;;4.53;3.55;;;;;;;28.88;36.22;99950.72;5063487;28;20028;-56
2022/08/18 10:33:11;;;;;;;9.93;3.75;;;;;;;29.00;36.35;99951.34;5056053;28;20252;-55
2022/08/18 10:35:37;;;;;;;9.40;3.83;;;;;;;28.99;36.30;99952.34;5045433;28;20036;-55
2022/08/18 10:38:21;;;;;;;4.78;3.40;;;;;;;28.31;35.37;99921.34;5049889;28;20044;-56
2022/08/18 10:41:22;;;;;;;5.65;3.40;;;;;;;28.74;35.85;99936.00;5059122;28;20330;-56
2022/08/18 10:43:52;;;;;;;10.60;3.55;;;;;;;28.55;34.84;99899.56;5065578;28;20040;-56
2022/08/18 10:46:23;;;;;;;6.03;3.42;;;;;;;28.53;34.72;99907.69;5070452;28;20033;-55
2022/08/18 10:49:12;;;;;;;8.63;3.35;;;;;;;28.90;34.06;99941.59;5056324;28;20033;-55
2022/08/18 10:51:43;;;;;;;9.15;3.15;;;;;;;28.90;34.22;99943.38;5065332;28;20096;-56
2022/08/18 10:54:18;;;;;;;;;;;;;;;28.91;34.09;99939.75;5054970;28;20028;-56
2022/08/18 10:56:48;;;;;;;5.47;2.97;;;;;;;28.88;33.42;99945.38;5061616;28;20213;-57
2022/08/18 10:59:42;;;;;;;5.43;3.22;;;;;;;29.09;33.37;99938.00;5055870;28;20224;-57
2022/08/18 11:02:16;;;;;;;7.78;3.15;;;;;;;29.07;33.31;99944.44;5062717;28;20052;-57
2022/08/18 11:04:48;;;;;;;5.00;2.67;;;;;;;28.95;32.14;99940.31;5052686;28;20041;-56
2022/08/18 11:07:18;;;;;;;6.43;3.05;;;;;;;28.81;32.82;99893.63;5046985;28;20086;-56
2022/08/18 11:09:48;;;;;;;9.53;3.13;;;;;;;29.10;32.85;99921.00;5045012;28;20036;-53
2022/08/18 11:12:14;;;;;;;4.80;2.83;;;;;;;29.27;32.96;99934.56;5043196;28;20055;-56
2022/08/18 11:14:54;;;;;;;8.50;3.50;;;;;;;29.33;32.50;99934.00;5063701;28;20095;-55
2022/08/18 11:17:28;;;;;;;8.77;3.38;;;;;;;29.18;32.03;99922.94;5062763;28;20023;-54
2022/08/18 11:19:54;;;;;;;5.68;3.10;;;;;;;28.98;32.76;99935.50;5045754;28;20025;-54
2022/08/18 11:22:30;;;;;;;4.22;2.90;;;;;;;28.97;32.81;99923.16;5042411;28;20048;-55
2022/08/18 11:24:56;;;;;;;8.20;3.22;;;;;;;29.12;32.64;99918.19;5042623;28;20041;-56
2022/08/18 11:27:25;;;;;;;3.88;2.90;;;;;;;29.02;31.59;99930.75;5058402;28;20029;-54
2022/08/18 11:29:52;;;;;;;6.93;2.83;;;;;;;28.98;31.62;99927.50;5047929;28;20025;-55
2022/08/18 11:32:31;;;;;;;6.75;2.80;;;;;;;29.00;30.82;99946.03;5042104;28;20037;-56
2022/08/18 11:34:57;;;;;;;5.72;2.70;;;;;;;29.09;29.96;99934.50;5051546;28;20325;-55
2022/08/18 11:37:57;;;;;;;7.18;2.75;;;;;;;29.10;29.76;99928.16;5080909;28;20043;-55
2022/08/18 11:40:40;;;;;;;6.80;2.70;;;;;;;29.06;30.58;99892.09;5039181;28;20267;-56
2022/08/18 11:43:06;;;;;;;6.32;2.83;;;;;;;29.38;30.13;99928.22;5045745;28;20120;-56
2022/08/18 11:45:46;;;;;;;7.75;2.78;;;;;;;29.04;30.46;99888.75;5074053;28;20047;-55
2022/08/18 11:48:31;;;;;;;4.15;2.40;;;;;;;28.99;30.33;99929.19;5059587;28;20293;-55
2022/08/18 11:51:02;;;;;;;6.93;2.40;;;;;;;29.06;30.37;99930.28;5061172;28;20029;-54
2022/08/18 11:53:31;;;;;;;5.97;2.80;;;;;;;28.97;29.47;99931.16;5048215;28;20037;-56
2022/08/18 11:56:19;;;;;;;6.50;2.90;;;;;;;29.01;29.46;99910.38;5069984;28;20031;-55
2022/08/18 11:58:48;;;;;;;7.00;2.80;;;;;;;29.13;29.88;99911.88;5066451;28;20102;-55
2022/08/18 12:01:43;;;;;;;5.93;2.58;;;;;;;29.23;29.92;99927.84;5065290;28;20036;-55
2022/08/18 12:04:19;;;;;;;3.17;2.58;;;;;;;29.06;29.78;99897.41;5052871;28;20044;-56
2022/08/18 12:07:07;;;;;;;15.00;3.75;;;;;;;29.32;29.43;99924.31;5065305;28;20024;-57
2022/08/18 12:09:42;;;;;;;2.97;2.65;;;;;;;28.91;28.70;99895.25;5065493;28;20060;-57